General Aviation Weather

Text Reports

Enter one or more of the following location identifiers separated by a space:

Zip Code, Four-Character ICAO or Three-Character IATA airport codes.

METAR - Aviation Routine Weather Report
KLWM - Lawrence, Massachusetts
Updated at 9:54 AM GMT on December 27, 2014 (4:54 AM EST):
METAR KLWM 270954Z AUTO 21004KT 10SM CLR 01/M02 A3015 RMK AO2 SLP211 T00061022
TAF - Terminal Area Forecast
KLWM - Lawrence, Massachusetts
Updated at 9:54 AM GMT on December 27, 2014 (4:54 AM EST):
No TAF is currently available for this location.
Decoded:
No decoded TAF is available.
PIREP - Pilot Weather Report
KLWM - Lawrence, Massachusetts
Updated at 9:54 AM GMT on December 27, 2014 (4:54 AM EST):
No PIREP is currently available for this location.
AIRMET - Airmens Meteorological Information
KLWM - Lawrence, Massachusetts
Updated at 9:54 AM GMT on December 27, 2014 (4:54 AM EST):
No AIRMET is currently available for this location.
SIGMET - Significant Meteorological Information
KLWM - Lawrence, Massachusetts
Updated at 9:54 AM GMT on December 27, 2014 (4:54 AM EST):
No SIGMET is currently available for this location.
NOTAM - Notice to Airmen
KLWM - Lawrence, Massachusetts
Updated at 9:54 AM GMT on December 27, 2014 (4:54 AM EST):
No NOTAM is currently available for this location.
Forecast Area
KLWM - Lawrence, Massachusetts
Updated at 9:54 AM GMT on December 27, 2014 (4:54 AM EST):
No NOTAM is currently available for this location.
Aviation Weather Maps